sensor_id;sensor_type;location;lat;lon;timestamp;P1;durP1;ratioP1;P2;durP2;ratioP2
6029;SDS011;3043;42.682;23.376;2023-02-15T00:01:45;39.43;;;24.57;;
6029;SDS011;3043;42.682;23.376;2023-02-15T00:04:15;48.67;;;26.50;;
6029;SDS011;3043;42.682;23.376;2023-02-15T00:06:42;40.20;;;23.43;;
6029;SDS011;3043;42.682;23.376;2023-02-15T00:09:09;42.87;;;24.77;;
6029;SDS011;3043;42.682;23.376;2023-02-15T00:11:35;43.37;;;26.17;;
6029;SDS011;3043;42.682;23.376;2023-02-15T00:16:47;45.10;;;26.27;;
6029;SDS011;3043;42.682;23.376;2023-02-15T00:19:14;43.03;;;26.17;;
6029;SDS011;3043;42.682;23.376;2023-02-15T00:21:41;43.17;;;24.80;;
6029;SDS011;3043;42.682;23.376;2023-02-15T00:24:09;42.37;;;24.87;;
6029;SDS011;3043;42.682;23.376;2023-02-15T00:26:37;47.37;;;26.30;;
6029;SDS011;3043;42.682;23.376;2023-02-15T00:29:04;42.10;;;24.53;;
6029;SDS011;3043;42.682;23.376;2023-02-15T00:31:31;47.23;;;27.20;;
6029;SDS011;3043;42.682;23.376;2023-02-15T00:34:07;44.77;;;24.70;;
6029;SDS011;3043;42.682;23.376;2023-02-15T00:36:38;41.43;;;23.73;;
6029;SDS011;3043;42.682;23.376;2023-02-15T00:39:03;42.53;;;24.63;;
6029;SDS011;3043;42.682;23.376;2023-02-15T00:41:30;42.27;;;24.63;;
6029;SDS011;3043;42.682;23.376;2023-02-15T00:43:56;43.10;;;25.33;;
6029;SDS011;3043;42.682;23.376;2023-02-15T00:46:22;45.83;;;25.80;;
6029;SDS011;3043;42.682;23.376;2023-02-15T00:48:47;42.00;;;24.47;;
6029;SDS011;3043;42.682;23.376;2023-02-15T00:51:13;46.00;;;24.93;;
6029;SDS011;3043;42.682;23.376;2023-02-15T00:53:38;44.43;;;26.00;;
6029;SDS011;3043;42.682;23.376;2023-02-15T00:56:04;44.73;;;26.50;;
6029;SDS011;3043;42.682;23.376;2023-02-15T00:58:29;42.90;;;26.40;;
6029;SDS011;3043;42.682;23.376;2023-02-15T01:00:54;42.93;;;24.67;;
6029;SDS011;3043;42.682;23.376;2023-02-15T01:03:26;42.00;;;24.10;;
6029;SDS011;3043;42.682;23.376;2023-02-15T01:05:52;41.50;;;24.27;;
6029;SDS011;3043;42.682;23.376;2023-02-15T01:08:17;43.60;;;24.77;;
6029;SDS011;3043;42.682;23.376;2023-02-15T01:10:43;43.27;;;24.83;;
6029;SDS011;3043;42.682;23.376;2023-02-15T01:13:10;44.17;;;24.40;;
6029;SDS011;3043;42.682;23.376;2023-02-15T01:15:36;42.40;;;25.10;;
6029;SDS011;3043;42.682;23.376;2023-02-15T01:18:01;42.17;;;24.37;;
6029;SDS011;3043;42.682;23.376;2023-02-15T01:20:27;42.37;;;23.93;;
6029;SDS011;3043;42.682;23.376;2023-02-15T01:22:54;38.83;;;23.20;;
6029;SDS011;3043;42.682;23.376;2023-02-15T01:25:22;43.90;;;25.73;;
6029;SDS011;3043;42.682;23.376;2023-02-15T01:27:49;42.33;;;25.07;;
6029;SDS011;3043;42.682;23.376;2023-02-15T01:30:15;40.53;;;23.33;;
6029;SDS011;3043;42.682;23.376;2023-02-15T01:32:41;41.30;;;23.90;;
6029;SDS011;3043;42.682;23.376;2023-02-15T01:35:07;41.03;;;23.93;;
6029;SDS011;3043;42.682;23.376;2023-02-15T01:37:33;39.47;;;23.43;;
6029;SDS011;3043;42.682;23.376;2023-02-15T01:40:00;41.67;;;22.40;;
6029;SDS011;3043;42.682;23.376;2023-02-15T01:42:26;39.03;;;23.10;;
6029;SDS011;3043;42.682;23.376;2023-02-15T01:44:56;37.87;;;22.27;;
6029;SDS011;3043;42.682;23.376;2023-02-15T01:50:03;39.00;;;23.73;;
6029;SDS011;3043;42.682;23.376;2023-02-15T01:52:31;40.67;;;24.47;;
6029;SDS011;3043;42.682;23.376;2023-02-15T01:54:59;40.57;;;23.83;;
6029;SDS011;3043;42.682;23.376;2023-02-15T01:57:25;38.67;;;22.53;;
6029;SDS011;3043;42.682;23.376;2023-02-15T01:59:54;40.53;;;24.63;;
6029;SDS011;3043;42.682;23.376;2023-02-15T02:02:24;40.77;;;23.73;;
6029;SDS011;3043;42.682;23.376;2023-02-15T02:05:07;39.93;;;23.13;;
6029;SDS011;3043;42.682;23.376;2023-02-15T02:07:39;40.97;;;23.43;;
6029;SDS011;3043;42.682;23.376;2023-02-15T02:10:07;37.83;;;23.70;;
6029;SDS011;3043;42.682;23.376;2023-02-15T02:12:35;39.10;;;23.33;;
6029;SDS011;3043;42.682;23.376;2023-02-15T02:15:03;43.27;;;23.30;;
6029;SDS011;3043;42.682;23.376;2023-02-15T02:17:42;38.47;;;23.73;;
6029;SDS011;3043;42.682;23.376;2023-02-15T02:23:24;40.90;;;23.10;;
6029;SDS011;3043;42.682;23.376;2023-02-15T02:37:03;38.20;;;23.07;;
6029;SDS011;3043;42.682;23.376;2023-02-15T02:39:56;36.80;;;22.03;;
6029;SDS011;3043;42.682;23.376;2023-02-15T02:45:20;33.03;;;20.97;;
6029;SDS011;3043;42.682;23.376;2023-02-15T02:48:00;36.83;;;22.73;;
6029;SDS011;3043;42.682;23.376;2023-02-15T02:50:31;35.00;;;20.43;;
6029;SDS011;3043;42.682;23.376;2023-02-15T02:52:57;37.50;;;22.67;;
6029;SDS011;3043;42.682;23.376;2023-02-15T02:55:31;37.97;;;23.23;;
6029;SDS011;3043;42.682;23.376;2023-02-15T02:58:08;42.33;;;23.63;;
6029;SDS011;3043;42.682;23.376;2023-02-15T03:00:46;37.63;;;21.63;;
6029;SDS011;3043;42.682;23.376;2023-02-15T03:03:19;40.47;;;22.87;;
6029;SDS011;3043;42.682;23.376;2023-02-15T03:05:52;39.17;;;23.20;;
6029;SDS011;3043;42.682;23.376;2023-02-15T03:08:20;40.57;;;22.03;;
6029;SDS011;3043;42.682;23.376;2023-02-15T03:10:53;38.97;;;21.53;;
6029;SDS011;3043;42.682;23.376;2023-02-15T03:13:21;37.50;;;22.07;;
6029;SDS011;3043;42.682;23.376;2023-02-15T03:15:47;38.70;;;22.60;;
6029;SDS011;3043;42.682;23.376;2023-02-15T03:18:38;34.77;;;21.47;;
6029;SDS011;3043;42.682;23.376;2023-02-15T03:21:08;37.37;;;22.30;;
6029;SDS011;3043;42.682;23.376;2023-02-15T03:23:47;39.30;;;21.60;;
6029;SDS011;3043;42.682;23.376;2023-02-15T03:26:17;38.13;;;21.93;;
6029;SDS011;3043;42.682;23.376;2023-02-15T03:28:44;35.80;;;20.77;;
6029;SDS011;3043;42.682;23.376;2023-02-15T03:31:13;37.90;;;22.40;;
6029;SDS011;3043;42.682;23.376;2023-02-15T03:33:42;35.17;;;21.30;;
6029;SDS011;3043;42.682;23.376;2023-02-15T03:36:17;33.17;;;20.30;;
6029;SDS011;3043;42.682;23.376;2023-02-15T03:38:54;35.73;;;22.03;;
6029;SDS011;3043;42.682;23.376;2023-02-15T03:41:25;34.50;;;21.73;;
6029;SDS011;3043;42.682;23.376;2023-02-15T03:44:02;36.33;;;21.57;;
6029;SDS011;3043;42.682;23.376;2023-02-15T03:46:53;36.17;;;21.87;;
6029;SDS011;3043;42.682;23.376;2023-02-15T03:49:24;37.13;;;22.03;;
6029;SDS011;3043;42.682;23.376;2023-02-15T03:51:56;34.80;;;21.23;;
6029;SDS011;3043;42.682;23.376;2023-02-15T03:54:26;36.27;;;21.40;;
6029;SDS011;3043;42.682;23.376;2023-02-15T04:00:04;33.03;;;21.20;;
6029;SDS011;3043;42.682;23.376;2023-02-15T04:05:40;36.83;;;22.17;;
6029;SDS011;3043;42.682;23.376;2023-02-15T04:08:08;37.07;;;21.47;;
6029;SDS011;3043;42.682;23.376;2023-02-15T04:10:34;35.33;;;21.57;;
6029;SDS011;3043;42.682;23.376;2023-02-15T04:13:30;32.27;;;20.03;;
6029;SDS011;3043;42.682;23.376;2023-02-15T04:15:57;38.03;;;20.63;;
6029;SDS011;3043;42.682;23.376;2023-02-15T04:18:32;38.03;;;21.77;;
6029;SDS011;3043;42.682;23.376;2023-02-15T04:21:21;35.70;;;22.53;;
6029;SDS011;3043;42.682;23.376;2023-02-15T04:24:06;34.87;;;22.00;;
6029;SDS011;3043;42.682;23.376;2023-02-15T04:26:50;34.77;;;20.50;;
6029;SDS011;3043;42.682;23.376;2023-02-15T04:29:19;36.83;;;21.80;;
6029;SDS011;3043;42.682;23.376;2023-02-15T04:31:46;34.27;;;20.57;;
6029;SDS011;3043;42.682;23.376;2023-02-15T04:34:11;37.10;;;21.93;;
6029;SDS011;3043;42.682;23.376;2023-02-15T04:36:37;35.63;;;20.97;;
6029;SDS011;3043;42.682;23.376;2023-02-15T04:39:03;36.70;;;22.10;;
6029;SDS011;3043;42.682;23.376;2023-02-15T04:41:29;35.40;;;20.80;;
6029;SDS011;3043;42.682;23.376;2023-02-15T04:43:54;36.33;;;21.83;;
6029;SDS011;3043;42.682;23.376;2023-02-15T04:46:20;34.47;;;21.30;;
6029;SDS011;3043;42.682;23.376;2023-02-15T04:48:45;35.07;;;21.57;;
6029;SDS011;3043;42.682;23.376;2023-02-15T04:51:11;34.57;;;21.30;;
6029;SDS011;3043;42.682;23.376;2023-02-15T04:53:36;34.57;;;21.73;;
6029;SDS011;3043;42.682;23.376;2023-02-15T04:56:02;35.40;;;20.63;;
6029;SDS011;3043;42.682;23.376;2023-02-15T04:58:28;36.90;;;22.07;;
6029;SDS011;3043;42.682;23.376;2023-02-15T05:00:56;36.47;;;21.57;;
6029;SDS011;3043;42.682;23.376;2023-02-15T05:03:23;35.50;;;20.67;;
6029;SDS011;3043;42.682;23.376;2023-02-15T05:05:49;36.77;;;21.00;;
6029;SDS011;3043;42.682;23.376;2023-02-15T05:08:15;34.03;;;20.60;;
6029;SDS011;3043;42.682;23.376;2023-02-15T05:10:41;33.10;;;20.60;;
6029;SDS011;3043;42.682;23.376;2023-02-15T05:13:07;35.83;;;22.17;;
6029;SDS011;3043;42.682;23.376;2023-02-15T05:15:32;33.53;;;21.33;;
6029;SDS011;3043;42.682;23.376;2023-02-15T05:17:58;35.13;;;21.00;;
6029;SDS011;3043;42.682;23.376;2023-02-15T05:20:23;35.37;;;21.77;;
6029;SDS011;3043;42.682;23.376;2023-02-15T05:22:52;35.20;;;21.53;;
6029;SDS011;3043;42.682;23.376;2023-02-15T05:25:18;35.20;;;21.17;;
6029;SDS011;3043;42.682;23.376;2023-02-15T05:28:03;34.30;;;20.13;;
6029;SDS011;3043;42.682;23.376;2023-02-15T05:30:49;36.67;;;21.43;;
6029;SDS011;3043;42.682;23.376;2023-02-15T05:33:23;34.13;;;21.70;;
6029;SDS011;3043;42.682;23.376;2023-02-15T05:35:49;35.40;;;20.50;;
6029;SDS011;3043;42.682;23.376;2023-02-15T05:38:14;32.83;;;20.73;;
6029;SDS011;3043;42.682;23.376;2023-02-15T05:40:39;37.53;;;21.33;;
6029;SDS011;3043;42.682;23.376;2023-02-15T05:43:05;33.10;;;20.63;;
6029;SDS011;3043;42.682;23.376;2023-02-15T05:45:30;37.60;;;21.70;;
6029;SDS011;3043;42.682;23.376;2023-02-15T05:47:56;33.13;;;20.30;;
6029;SDS011;3043;42.682;23.376;2023-02-15T05:50:23;33.07;;;20.40;;
6029;SDS011;3043;42.682;23.376;2023-02-15T05:52:48;31.60;;;20.07;;
6029;SDS011;3043;42.682;23.376;2023-02-15T05:55:14;37.03;;;21.73;;
6029;SDS011;3043;42.682;23.376;2023-02-15T05:57:40;35.27;;;21.00;;
6029;SDS011;3043;42.682;23.376;2023-02-15T06:00:05;33.83;;;20.90;;
6029;SDS011;3043;42.682;23.376;2023-02-15T06:02:34;37.00;;;21.63;;
6029;SDS011;3043;42.682;23.376;2023-02-15T06:05:01;35.07;;;20.07;;
6029;SDS011;3043;42.682;23.376;2023-02-15T06:07:26;32.67;;;20.40;;
6029;SDS011;3043;42.682;23.376;2023-02-15T06:09:52;34.43;;;20.57;;
6029;SDS011;3043;42.682;23.376;2023-02-15T06:12:17;33.93;;;20.83;;
6029;SDS011;3043;42.682;23.376;2023-02-15T06:14:42;33.33;;;20.47;;
6029;SDS011;3043;42.682;23.376;2023-02-15T06:17:08;33.60;;;21.03;;
6029;SDS011;3043;42.682;23.376;2023-02-15T06:19:33;32.10;;;19.63;;
6029;SDS011;3043;42.682;23.376;2023-02-15T06:21:59;31.27;;;20.27;;
6029;SDS011;3043;42.682;23.376;2023-02-15T06:24:24;31.33;;;20.50;;
6029;SDS011;3043;42.682;23.376;2023-02-15T06:26:50;32.13;;;19.70;;
6029;SDS011;3043;42.682;23.376;2023-02-15T06:29:15;33.00;;;19.67;;
6029;SDS011;3043;42.682;23.376;2023-02-15T06:31:41;29.73;;;18.83;;
6029;SDS011;3043;42.682;23.376;2023-02-15T06:34:06;33.20;;;20.27;;
6029;SDS011;3043;42.682;23.376;2023-02-15T06:36:32;32.07;;;19.33;;
6029;SDS011;3043;42.682;23.376;2023-02-15T06:38:57;37.17;;;20.73;;
6029;SDS011;3043;42.682;23.376;2023-02-15T06:41:23;33.00;;;20.40;;
6029;SDS011;3043;42.682;23.376;2023-02-15T06:43:48;30.00;;;18.63;;
6029;SDS011;3043;42.682;23.376;2023-02-15T06:46:14;31.00;;;20.23;;
6029;SDS011;3043;42.682;23.376;2023-02-15T06:48:40;32.37;;;20.13;;
6029;SDS011;3043;42.682;23.376;2023-02-15T06:51:05;33.83;;;20.03;;
6029;SDS011;3043;42.682;23.376;2023-02-15T06:53:31;33.90;;;20.77;;
6029;SDS011;3043;42.682;23.376;2023-02-15T06:56:03;29.97;;;18.47;;
6029;SDS011;3043;42.682;23.376;2023-02-15T06:58:38;32.83;;;20.07;;
6029;SDS011;3043;42.682;23.376;2023-02-15T07:01:05;29.80;;;18.10;;
6029;SDS011;3043;42.682;23.376;2023-02-15T07:03:31;30.03;;;18.67;;
6029;SDS011;3043;42.682;23.376;2023-02-15T07:05:57;33.40;;;20.27;;
6029;SDS011;3043;42.682;23.376;2023-02-15T07:08:24;33.37;;;21.53;;
6029;SDS011;3043;42.682;23.376;2023-02-15T07:10:51;33.37;;;20.13;;
6029;SDS011;3043;42.682;23.376;2023-02-15T07:13:18;31.13;;;18.87;;
6029;SDS011;3043;42.682;23.376;2023-02-15T07:15:44;30.57;;;19.30;;
6029;SDS011;3043;42.682;23.376;2023-02-15T07:18:11;30.47;;;18.70;;
6029;SDS011;3043;42.682;23.376;2023-02-15T07:20:37;28.70;;;17.87;;
6029;SDS011;3043;42.682;23.376;2023-02-15T07:23:03;28.00;;;17.70;;
6029;SDS011;3043;42.682;23.376;2023-02-15T07:25:29;26.93;;;16.77;;
6029;SDS011;3043;42.682;23.376;2023-02-15T07:27:58;27.67;;;18.07;;
6029;SDS011;3043;42.682;23.376;2023-02-15T07:30:25;26.47;;;17.00;;
6029;SDS011;3043;42.682;23.376;2023-02-15T07:32:50;27.63;;;17.90;;
6029;SDS011;3043;42.682;23.376;2023-02-15T07:35:34;27.53;;;17.70;;
6029;SDS011;3043;42.682;23.376;2023-02-15T07:38:00;29.13;;;17.20;;
6029;SDS011;3043;42.682;23.376;2023-02-15T07:40:26;27.27;;;17.57;;
6029;SDS011;3043;42.682;23.376;2023-02-15T07:42:51;26.70;;;17.53;;
6029;SDS011;3043;42.682;23.376;2023-02-15T07:45:19;24.53;;;16.17;;
6029;SDS011;3043;42.682;23.376;2023-02-15T07:47:45;28.43;;;17.73;;
6029;SDS011;3043;42.682;23.376;2023-02-15T07:50:11;29.30;;;17.80;;
6029;SDS011;3043;42.682;23.376;2023-02-15T07:52:36;28.37;;;17.27;;
6029;SDS011;3043;42.682;23.376;2023-02-15T07:55:02;27.10;;;17.23;;
6029;SDS011;3043;42.682;23.376;2023-02-15T07:57:28;28.43;;;17.03;;
6029;SDS011;3043;42.682;23.376;2023-02-15T07:59:53;27.07;;;16.40;;
6029;SDS011;3043;42.682;23.376;2023-02-15T08:02:18;25.33;;;16.13;;
6029;SDS011;3043;42.682;23.376;2023-02-15T08:04:44;28.30;;;16.80;;
6029;SDS011;3043;42.682;23.376;2023-02-15T08:07:09;29.47;;;17.17;;
6029;SDS011;3043;42.682;23.376;2023-02-15T08:09:34;27.57;;;17.27;;
6029;SDS011;3043;42.682;23.376;2023-02-15T08:12:00;30.07;;;16.67;;
6029;SDS011;3043;42.682;23.376;2023-02-15T08:14:26;27.83;;;17.43;;
6029;SDS011;3043;42.682;23.376;2023-02-15T08:16:53;30.63;;;19.23;;
6029;SDS011;3043;42.682;23.376;2023-02-15T08:19:30;31.63;;;19.13;;
6029;SDS011;3043;42.682;23.376;2023-02-15T08:22:01;25.20;;;17.00;;
6029;SDS011;3043;42.682;23.376;2023-02-15T08:24:37;30.07;;;17.23;;
6029;SDS011;3043;42.682;23.376;2023-02-15T08:27:04;26.73;;;17.40;;
6029;SDS011;3043;42.682;23.376;2023-02-15T08:29:30;30.00;;;16.13;;
6029;SDS011;3043;42.682;23.376;2023-02-15T08:31:58;28.67;;;18.03;;
6029;SDS011;3043;42.682;23.376;2023-02-15T08:34:27;27.23;;;17.53;;
6029;SDS011;3043;42.682;23.376;2023-02-15T08:36:54;24.77;;;15.90;;
6029;SDS011;3043;42.682;23.376;2023-02-15T08:39:20;29.67;;;17.50;;
6029;SDS011;3043;42.682;23.376;2023-02-15T08:41:46;33.47;;;19.13;;
6029;SDS011;3043;42.682;23.376;2023-02-15T08:44:14;26.97;;;18.53;;
6029;SDS011;3043;42.682;23.376;2023-02-15T08:46:41;31.47;;;18.87;;
6029;SDS011;3043;42.682;23.376;2023-02-15T08:49:09;31.53;;;18.37;;
6029;SDS011;3043;42.682;23.376;2023-02-15T08:51:38;28.53;;;17.70;;
6029;SDS011;3043;42.682;23.376;2023-02-15T08:54:06;27.23;;;17.43;;
6029;SDS011;3043;42.682;23.376;2023-02-15T08:56:35;28.77;;;17.80;;
6029;SDS011;3043;42.682;23.376;2023-02-15T08:59:02;29.03;;;17.03;;
6029;SDS011;3043;42.682;23.376;2023-02-15T09:01:28;28.03;;;15.73;;
6029;SDS011;3043;42.682;23.376;2023-02-15T09:03:56;27.37;;;16.27;;
6029;SDS011;3043;42.682;23.376;2023-02-15T09:06:40;21.77;;;14.57;;
6029;SDS011;3043;42.682;23.376;2023-02-15T09:09:09;24.13;;;15.47;;
6029;SDS011;3043;42.682;23.376;2023-02-15T09:11:37;23.30;;;15.60;;
6029;SDS011;3043;42.682;23.376;2023-02-15T09:14:05;22.33;;;14.97;;
6029;SDS011;3043;42.682;23.376;2023-02-15T09:16:34;21.60;;;14.70;;
6029;SDS011;3043;42.682;23.376;2023-02-15T09:19:01;29.33;;;15.77;;
6029;SDS011;3043;42.682;23.376;2023-02-15T09:21:29;24.30;;;15.73;;
6029;SDS011;3043;42.682;23.376;2023-02-15T09:24:01;24.80;;;14.47;;
6029;SDS011;3043;42.682;23.376;2023-02-15T09:26:28;23.57;;;14.23;;
6029;SDS011;3043;42.682;23.376;2023-02-15T09:28:56;21.53;;;15.40;;
6029;SDS011;3043;42.682;23.376;2023-02-15T09:31:27;24.00;;;14.40;;
6029;SDS011;3043;42.682;23.376;2023-02-15T09:33:54;23.70;;;14.97;;
6029;SDS011;3043;42.682;23.376;2023-02-15T09:36:22;26.13;;;15.43;;
6029;SDS011;3043;42.682;23.376;2023-02-15T09:39:00;26.00;;;13.93;;
6029;SDS011;3043;42.682;23.376;2023-02-15T09:52:02;25.40;;;15.67;;
6029;SDS011;3043;42.682;23.376;2023-02-15T10:11:03;25.70;;;16.77;;
6029;SDS011;3043;42.682;23.376;2023-02-15T10:14:15;27.90;;;15.83;;
6029;SDS011;3043;42.682;23.376;2023-02-15T10:17:02;23.90;;;16.67;;
6029;SDS011;3043;42.682;23.376;2023-02-15T10:19:33;25.40;;;16.13;;
6029;SDS011;3043;42.682;23.376;2023-02-15T10:28:16;26.93;;;17.17;;
6029;SDS011;3043;42.682;23.376;2023-02-15T10:30:47;25.27;;;16.63;;
6029;SDS011;3043;42.682;23.376;2023-02-15T10:41:43;26.67;;;16.63;;
6029;SDS011;3043;42.682;23.376;2023-02-15T10:44:22;25.37;;;15.93;;
6029;SDS011;3043;42.682;23.376;2023-02-15T10:55:45;30.07;;;17.73;;
6029;SDS011;3043;42.682;23.376;2023-02-15T10:58:20;27.20;;;17.37;;
6029;SDS011;3043;42.682;23.376;2023-02-15T11:04:08;23.60;;;16.13;;
6029;SDS011;3043;42.682;23.376;2023-02-15T11:06:54;27.53;;;18.63;;
6029;SDS011;3043;42.682;23.376;2023-02-15T11:09:25;25.10;;;17.13;;
6029;SDS011;3043;42.682;23.376;2023-02-15T11:12:00;28.03;;;17.50;;
6029;SDS011;3043;42.682;23.376;2023-02-15T11:14:38;24.63;;;17.33;;
6029;SDS011;3043;42.682;23.376;2023-02-15T11:17:14;26.30;;;17.37;;
6029;SDS011;3043;42.682;23.376;2023-02-15T11:22:34;28.87;;;17.13;;
6029;SDS011;3043;42.682;23.376;2023-02-15T11:25:01;24.93;;;17.40;;
6029;SDS011;3043;42.682;23.376;2023-02-15T11:27:29;25.37;;;17.30;;
6029;SDS011;3043;42.682;23.376;2023-02-15T11:29:59;30.00;;;17.70;;
6029;SDS011;3043;42.682;23.376;2023-02-15T11:32:29;25.37;;;16.47;;
6029;SDS011;3043;42.682;23.376;2023-02-15T11:42:53;28.00;;;17.67;;
6029;SDS011;3043;42.682;23.376;2023-02-15T11:45:30;25.00;;;16.77;;
6029;SDS011;3043;42.682;23.376;2023-02-15T11:47:59;27.97;;;18.27;;
6029;SDS011;3043;42.682;23.376;2023-02-15T11:50:27;27.70;;;18.13;;
6029;SDS011;3043;42.682;23.376;2023-02-15T11:53:00;24.97;;;17.43;;
6029;SDS011;3043;42.682;23.376;2023-02-15T11:55:34;25.40;;;16.87;;
6029;SDS011;3043;42.682;23.376;2023-02-15T11:58:21;25.23;;;16.63;;
6029;SDS011;3043;42.682;23.376;2023-02-15T12:01:16;26.30;;;16.50;;
6029;SDS011;3043;42.682;23.376;2023-02-15T12:07:02;25.50;;;16.37;;
6029;SDS011;3043;42.682;23.376;2023-02-15T12:12:20;25.23;;;16.20;;
6029;SDS011;3043;42.682;23.376;2023-02-15T12:14:57;27.43;;;17.37;;
6029;SDS011;3043;42.682;23.376;2023-02-15T12:17:27;25.57;;;17.37;;
6029;SDS011;3043;42.682;23.376;2023-02-15T12:19:57;24.67;;;16.83;;
6029;SDS011;3043;42.682;23.376;2023-02-15T12:22:31;26.37;;;17.13;;
6029;SDS011;3043;42.682;23.376;2023-02-15T12:25:02;28.70;;;17.63;;
6029;SDS011;3043;42.682;23.376;2023-02-15T12:27:45;32.17;;;17.53;;
6029;SDS011;3043;42.682;23.376;2023-02-15T12:30:31;30.43;;;18.67;;
6029;SDS011;3043;42.682;23.376;2023-02-15T12:35:42;29.67;;;19.10;;
6029;SDS011;3043;42.682;23.376;2023-02-15T12:40:34;26.80;;;17.63;;
6029;SDS011;3043;42.682;23.376;2023-02-15T12:43:00;25.23;;;16.27;;
6029;SDS011;3043;42.682;23.376;2023-02-15T12:45:34;24.93;;;17.07;;
6029;SDS011;3043;42.682;23.376;2023-02-15T12:50:38;26.63;;;17.50;;
6029;SDS011;3043;42.682;23.376;2023-02-15T12:53:18;28.93;;;15.43;;
6029;SDS011;3043;42.682;23.376;2023-02-15T12:55:55;25.03;;;15.60;;
6029;SDS011;3043;42.682;23.376;2023-02-15T12:58:23;25.40;;;16.97;;
6029;SDS011;3043;42.682;23.376;2023-02-15T13:03:34;24.23;;;16.03;;
6029;SDS011;3043;42.682;23.376;2023-02-15T13:06:02;31.07;;;17.53;;
6029;SDS011;3043;42.682;23.376;2023-02-15T13:08:34;27.80;;;17.70;;
6029;SDS011;3043;42.682;23.376;2023-02-15T13:11:08;29.97;;;17.93;;
6029;SDS011;3043;42.682;23.376;2023-02-15T13:13:58;25.10;;;17.60;;
6029;SDS011;3043;42.682;23.376;2023-02-15T13:16:31;26.30;;;17.00;;
6029;SDS011;3043;42.682;23.376;2023-02-15T13:19:02;27.47;;;16.97;;
6029;SDS011;3043;42.682;23.376;2023-02-15T13:21:37;25.67;;;16.47;;
6029;SDS011;3043;42.682;23.376;2023-02-15T13:24:27;27.37;;;17.77;;
6029;SDS011;3043;42.682;23.376;2023-02-15T13:26:54;24.70;;;16.63;;
6029;SDS011;3043;42.682;23.376;2023-02-15T13:29:23;31.20;;;17.70;;
6029;SDS011;3043;42.682;23.376;2023-02-15T13:31:52;28.13;;;18.00;;
6029;SDS011;3043;42.682;23.376;2023-02-15T13:34:22;26.60;;;17.17;;
6029;SDS011;3043;42.682;23.376;2023-02-15T13:39:28;24.77;;;17.03;;
6029;SDS011;3043;42.682;23.376;2023-02-15T13:45:08;28.20;;;15.73;;
6029;SDS011;3043;42.682;23.376;2023-02-15T14:01:58;25.53;;;17.10;;
6029;SDS011;3043;42.682;23.376;2023-02-15T14:05:32;30.80;;;17.93;;
6029;SDS011;3043;42.682;23.376;2023-02-15T14:07:59;29.37;;;18.40;;
6029;SDS011;3043;42.682;23.376;2023-02-15T14:21:49;28.83;;;18.10;;
6029;SDS011;3043;42.682;23.376;2023-02-15T14:30:03;31.97;;;18.93;;
6029;SDS011;3043;42.682;23.376;2023-02-15T14:32:40;29.57;;;17.63;;
6029;SDS011;3043;42.682;23.376;2023-02-15T14:35:14;28.53;;;17.80;;
6029;SDS011;3043;42.682;23.376;2023-02-15T14:37:52;25.60;;;17.77;;
6029;SDS011;3043;42.682;23.376;2023-02-15T14:40:30;30.17;;;19.30;;
6029;SDS011;3043;42.682;23.376;2023-02-15T14:43:21;26.93;;;18.40;;
6029;SDS011;3043;42.682;23.376;2023-02-15T14:48:49;27.97;;;18.07;;
6029;SDS011;3043;42.682;23.376;2023-02-15T14:56:42;30.57;;;19.40;;
6029;SDS011;3043;42.682;23.376;2023-02-15T14:59:21;31.77;;;20.20;;
6029;SDS011;3043;42.682;23.376;2023-02-15T15:01:55;30.97;;;18.57;;
6029;SDS011;3043;42.682;23.376;2023-02-15T15:04:46;29.30;;;18.07;;
6029;SDS011;3043;42.682;23.376;2023-02-15T15:07:24;30.50;;;19.27;;
6029;SDS011;3043;42.682;23.376;2023-02-15T15:09:59;29.23;;;18.47;;
6029;SDS011;3043;42.682;23.376;2023-02-15T15:15:01;30.23;;;18.30;;
6029;SDS011;3043;42.682;23.376;2023-02-15T15:20:12;28.53;;;17.63;;
6029;SDS011;3043;42.682;23.376;2023-02-15T15:25:40;30.83;;;17.30;;
6029;SDS011;3043;42.682;23.376;2023-02-15T15:28:52;29.03;;;18.53;;
6029;SDS011;3043;42.682;23.376;2023-02-15T15:34:17;29.63;;;18.20;;
6029;SDS011;3043;42.682;23.376;2023-02-15T15:51:19;32.97;;;19.70;;
6029;SDS011;3043;42.682;23.376;2023-02-15T15:53:49;32.73;;;19.17;;
6029;SDS011;3043;42.682;23.376;2023-02-15T15:56:29;30.33;;;19.30;;
6029;SDS011;3043;42.682;23.376;2023-02-15T15:58:59;33.80;;;19.93;;
6029;SDS011;3043;42.682;23.376;2023-02-15T16:01:29;31.07;;;20.40;;
6029;SDS011;3043;42.682;23.376;2023-02-15T16:03:57;32.70;;;19.63;;
6029;SDS011;3043;42.682;23.376;2023-02-15T16:08:52;28.17;;;18.87;;
6029;SDS011;3043;42.682;23.376;2023-02-15T16:11:22;30.67;;;19.37;;
6029;SDS011;3043;42.682;23.376;2023-02-15T16:13:50;32.70;;;20.67;;
6029;SDS011;3043;42.682;23.376;2023-02-15T16:16:27;27.23;;;18.10;;
6029;SDS011;3043;42.682;23.376;2023-02-15T16:18:54;31.10;;;20.23;;
6029;SDS011;3043;42.682;23.376;2023-02-15T16:21:26;31.10;;;19.53;;
6029;SDS011;3043;42.682;23.376;2023-02-15T16:24:16;28.17;;;17.53;;
6029;SDS011;3043;42.682;23.376;2023-02-15T16:29:17;28.43;;;18.83;;
6029;SDS011;3043;42.682;23.376;2023-02-15T16:32:05;35.90;;;20.77;;
6029;SDS011;3043;42.682;23.376;2023-02-15T16:34:50;32.77;;;18.77;;
6029;SDS011;3043;42.682;23.376;2023-02-15T16:37:19;31.87;;;20.40;;
6029;SDS011;3043;42.682;23.376;2023-02-15T16:39:48;35.33;;;18.97;;
6029;SDS011;3043;42.682;23.376;2023-02-15T16:42:15;29.67;;;18.57;;
6029;SDS011;3043;42.682;23.376;2023-02-15T16:44:42;31.43;;;19.97;;
6029;SDS011;3043;42.682;23.376;2023-02-15T16:47:14;29.90;;;18.83;;
6029;SDS011;3043;42.682;23.376;2023-02-15T16:49:53;33.57;;;19.77;;
6029;SDS011;3043;42.682;23.376;2023-02-15T16:52:23;32.40;;;19.73;;
6029;SDS011;3043;42.682;23.376;2023-02-15T16:54:58;31.50;;;20.23;;
6029;SDS011;3043;42.682;23.376;2023-02-15T16:57:30;32.27;;;20.10;;
6029;SDS011;3043;42.682;23.376;2023-02-15T17:00:16;33.20;;;21.23;;
6029;SDS011;3043;42.682;23.376;2023-02-15T17:02:58;29.93;;;18.40;;
6029;SDS011;3043;42.682;23.376;2023-02-15T17:05:29;35.30;;;21.43;;
6029;SDS011;3043;42.682;23.376;2023-02-15T17:10:35;33.03;;;21.00;;
6029;SDS011;3043;42.682;23.376;2023-02-15T17:13:10;35.63;;;21.83;;
6029;SDS011;3043;42.682;23.376;2023-02-15T17:15:37;33.87;;;20.60;;
6029;SDS011;3043;42.682;23.376;2023-02-15T17:18:08;30.77;;;20.10;;
6029;SDS011;3043;42.682;23.376;2023-02-15T17:20:40;35.53;;;21.73;;
6029;SDS011;3043;42.682;23.376;2023-02-15T17:24:13;38.23;;;21.20;;
6029;SDS011;3043;42.682;23.376;2023-02-15T17:26:20;33.83;;;20.90;;
6029;SDS011;3043;42.682;23.376;2023-02-15T17:28:51;35.77;;;22.03;;
6029;SDS011;3043;42.682;23.376;2023-02-15T17:31:19;36.37;;;21.87;;
6029;SDS011;3043;42.682;23.376;2023-02-15T17:33:45;33.77;;;21.63;;
6029;SDS011;3043;42.682;23.376;2023-02-15T17:36:12;39.03;;;22.07;;
6029;SDS011;3043;42.682;23.376;2023-02-15T17:38:42;35.83;;;21.67;;
6029;SDS011;3043;42.682;23.376;2023-02-15T17:41:30;39.43;;;22.90;;
6029;SDS011;3043;42.682;23.376;2023-02-15T17:43:57;37.57;;;21.97;;
6029;SDS011;3043;42.682;23.376;2023-02-15T17:46:23;31.80;;;19.73;;
6029;SDS011;3043;42.682;23.376;2023-02-15T17:48:51;35.90;;;22.00;;
6029;SDS011;3043;42.682;23.376;2023-02-15T17:51:19;35.73;;;22.27;;
6029;SDS011;3043;42.682;23.376;2023-02-15T17:53:46;31.87;;;20.97;;
6029;SDS011;3043;42.682;23.376;2023-02-15T17:56:31;31.57;;;21.23;;
6029;SDS011;3043;42.682;23.376;2023-02-15T17:58:57;33.90;;;20.63;;
6029;SDS011;3043;42.682;23.376;2023-02-15T18:01:22;33.37;;;21.27;;
6029;SDS011;3043;42.682;23.376;2023-02-15T18:04:11;36.03;;;22.30;;